createdAt,value
2019-06-04T00:01:14.416Z,0.00
2019-06-04T00:01:59.856Z,0.00
2019-06-04T00:02:58.164Z,0.00
2019-06-04T00:03:59.630Z,0.00
2019-06-04T00:04:58.261Z,0.00
2019-06-04T00:05:58.203Z,0.00
2019-06-04T00:06:58.279Z,0.00
2019-06-04T00:07:57.990Z,0.00
2019-06-04T00:08:58.508Z,0.00
2019-06-04T00:09:57.894Z,0.00
2019-06-04T00:10:58.531Z,0.00
2019-06-04T00:11:57.910Z,0.00
2019-06-04T00:12:57.913Z,0.00
2019-06-04T00:13:59.010Z,0.00
2019-06-04T00:14:57.968Z,0.00
2019-06-04T00:15:59.014Z,0.00
2019-06-04T00:16:58.411Z,0.00
2019-06-04T00:17:57.830Z,0.00
2019-06-04T00:18:59.131Z,0.00
2019-06-04T00:19:59.042Z,0.00
2019-06-04T00:20:59.035Z,0.00
2019-06-04T00:21:57.782Z,0.00
2019-06-04T00:22:58.432Z,0.00
2019-06-04T00:23:58.533Z,0.00
2019-06-04T00:24:58.583Z,0.00
2019-06-04T00:25:58.883Z,0.00
2019-06-04T00:26:58.781Z,0.00
2019-06-04T00:27:58.947Z,0.00
2019-06-04T00:28:57.973Z,0.00
2019-06-04T00:29:58.056Z,0.00
2019-06-04T00:30:58.828Z,0.00
2019-06-04T00:31:57.927Z,0.00
2019-06-04T00:32:57.930Z,0.00
2019-06-04T00:33:58.188Z,0.00
2019-06-04T00:34:58.029Z,0.00
2019-06-04T00:35:58.260Z,0.00
2019-06-04T00:36:58.070Z,0.00
2019-06-04T00:37:58.542Z,0.00
2019-06-04T00:38:58.392Z,0.00
2019-06-04T00:39:58.572Z,0.00
2019-06-04T00:40:58.774Z,0.00
2019-06-04T00:41:58.691Z,0.00
2019-06-04T00:42:58.569Z,0.00
2019-06-04T00:43:58.663Z,0.00
2019-06-04T00:44:58.913Z,0.00
2019-06-04T00:45:58.517Z,0.00
2019-06-04T00:46:58.810Z,0.00
2019-06-04T00:47:58.921Z,0.00
2019-06-04T00:48:58.830Z,0.00
2019-06-04T00:49:58.624Z,0.00
2019-06-04T00:50:57.444Z,0.00
2019-06-04T00:51:57.419Z,0.00
2019-06-04T00:52:57.415Z,0.00
2019-06-04T00:53:57.398Z,0.00
2019-06-04T00:54:57.513Z,0.00
2019-06-04T00:55:58.144Z,0.00
2019-06-04T00:56:57.374Z,0.00
2019-06-04T00:57:58.334Z,0.00
2019-06-04T00:58:57.365Z,0.00
2019-06-04T00:59:58.414Z,0.00
2019-06-04T01:00:57.723Z,0.00
2019-06-04T01:01:58.793Z,0.00
2019-06-04T01:02:57.708Z,0.00
2019-06-04T01:03:57.285Z,0.00
2019-06-04T01:04:57.942Z,0.00
2019-06-04T01:05:57.271Z,0.00
2019-06-04T01:06:57.332Z,0.00
2019-06-04T01:07:57.355Z,0.00
2019-06-04T01:08:57.319Z,0.00
2019-06-04T01:09:57.499Z,0.00
2019-06-04T01:10:58.593Z,0.00
2019-06-04T01:11:57.596Z,0.00
2019-06-04T01:12:59.214Z,0.00
2019-06-04T01:13:57.942Z,0.00
2019-06-04T01:14:58.004Z,0.00
2019-06-04T01:15:58.023Z,0.00
2019-06-04T01:16:58.326Z,0.00
2019-06-04T01:17:58.407Z,0.00
2019-06-04T01:18:58.489Z,0.00
2019-06-04T01:19:58.482Z,0.00
2019-06-04T01:20:57.100Z,0.00
2019-06-04T01:21:57.077Z,0.00
2019-06-04T01:22:57.066Z,0.00
2019-06-04T01:23:57.064Z,0.00
2019-06-04T01:24:57.101Z,0.00
2019-06-04T01:25:57.041Z,0.00
2019-06-04T01:26:57.023Z,0.00
2019-06-04T01:27:57.012Z,0.00
2019-06-04T01:28:57.004Z,0.00
2019-06-04T01:29:57.047Z,0.00
2019-06-04T01:30:57.011Z,0.00
2019-06-04T01:32:11.053Z,0.00
2019-06-04T01:32:58.859Z,0.00
2019-06-04T01:33:56.973Z,0.00
2019-06-04T01:34:56.979Z,0.00
2019-06-04T01:35:56.930Z,0.00
2019-06-04T01:36:56.966Z,0.00
2019-06-04T01:37:56.901Z,0.00
2019-06-04T01:38:56.898Z,0.00
2019-06-04T01:39:57.537Z,0.00
2019-06-04T01:40:56.886Z,0.00
2019-06-04T01:41:56.903Z,0.00
2019-06-04T01:42:56.880Z,0.00
2019-06-04T01:43:56.858Z,0.00
2019-06-04T01:44:56.822Z,0.00
2019-06-04T01:45:56.801Z,0.00
2019-06-04T01:46:56.792Z,0.00
2019-06-04T01:47:56.775Z,0.00
2019-06-04T01:48:56.828Z,0.00
2019-06-04T01:49:56.782Z,0.00
2019-06-04T01:50:56.761Z,0.00
2019-06-04T01:51:56.735Z,0.00
2019-06-04T01:52:56.740Z,0.00
2019-06-04T01:53:56.725Z,0.00
2019-06-04T01:54:56.749Z,0.00
2019-06-04T01:55:56.707Z,0.00
2019-06-04T01:56:56.692Z,0.00
2019-06-04T01:57:56.670Z,0.00
2019-06-04T01:58:56.680Z,0.00
2019-06-04T01:59:56.677Z,0.00
2019-06-04T02:00:56.708Z,0.00
2019-06-04T02:01:56.689Z,0.00
2019-06-04T02:02:56.631Z,0.00
2019-06-04T02:03:56.613Z,0.00
2019-06-04T02:04:56.618Z,0.00
2019-06-04T02:05:56.599Z,0.00
2019-06-04T02:06:56.626Z,0.00
2019-06-04T02:07:56.566Z,0.00
2019-06-04T02:08:56.568Z,0.00
2019-06-04T02:09:56.544Z,0.00
2019-06-04T02:10:56.541Z,0.00
2019-06-04T02:11:56.526Z,0.00
2019-06-04T02:12:56.569Z,0.00
2019-06-04T02:13:56.491Z,0.00
2019-06-04T02:14:56.488Z,0.00
2019-06-04T02:15:56.487Z,0.00
2019-06-04T02:16:56.467Z,0.00
2019-06-04T02:17:56.453Z,0.00
2019-06-04T02:18:56.488Z,0.00
2019-06-04T02:19:56.465Z,0.00
2019-06-04T02:20:56.438Z,0.00
2019-06-04T02:21:56.411Z,0.00
2019-06-04T02:22:56.408Z,0.00
2019-06-04T02:23:56.473Z,0.00
2019-06-04T02:24:56.403Z,0.00
2019-06-04T02:25:56.365Z,0.00
2019-06-04T02:26:56.346Z,0.00
2019-06-04T02:27:56.351Z,0.00
2019-06-04T02:28:56.323Z,0.00
2019-06-04T02:29:56.307Z,0.00
2019-06-04T02:30:56.356Z,0.00
2019-06-04T02:31:56.282Z,0.00
2019-06-04T02:33:07.802Z,0.00
2019-06-04T02:33:57.282Z,0.00
2019-06-04T02:34:56.275Z,0.00
2019-06-04T02:35:56.254Z,0.00
2019-06-04T02:36:56.301Z,0.00
2019-06-04T02:37:56.223Z,0.00
2019-06-04T02:38:56.211Z,0.00
2019-06-04T02:39:56.217Z,0.00
2019-06-04T02:40:56.213Z,0.00
2019-06-04T02:41:56.195Z,0.00
2019-06-04T02:42:56.216Z,0.00
2019-06-04T02:43:56.159Z,0.00
2019-06-04T02:44:56.154Z,4.00
2019-06-04T02:45:56.133Z,4.00
2019-06-04T02:46:56.137Z,4.00
2019-06-04T02:47:56.149Z,4.00
2019-06-04T02:48:56.138Z,4.00
2019-06-04T02:49:56.099Z,4.00
2019-06-04T02:50:56.095Z,4.00
2019-06-04T02:51:56.075Z,8.00
2019-06-04T02:52:56.065Z,8.00
2019-06-04T02:53:56.043Z,8.00
2019-06-04T02:54:56.108Z,8.00
2019-06-04T02:55:56.045Z,8.00
2019-06-04T02:56:56.010Z,12.00
2019-06-04T02:57:56.016Z,12.00
2019-06-04T02:58:55.988Z,12.00
2019-06-04T02:59:55.974Z,16.00
2019-06-04T03:00:56.018Z,12.00
2019-06-04T03:01:55.948Z,16.00
2019-06-04T03:02:55.950Z,16.00
2019-06-04T03:03:55.928Z,16.00
2019-06-04T03:04:55.911Z,20.00
2019-06-04T03:05:55.924Z,24.00
2019-06-04T03:06:56.074Z,24.00
2019-06-04T03:07:55.880Z,28.00
2019-06-04T03:08:55.872Z,28.00
2019-06-04T03:09:55.854Z,32.00
2019-06-04T03:10:55.860Z,36.00
2019-06-04T03:11:55.837Z,40.00
2019-06-04T03:12:55.860Z,44.00
2019-06-04T03:13:55.828Z,48.00
2019-06-04T03:14:55.801Z,56.00
2019-06-04T03:15:55.789Z,60.00
2019-06-04T03:16:55.810Z,64.00
2019-06-04T03:17:55.770Z,72.00
2019-06-04T03:18:56.551Z,76.00
2019-06-04T03:19:55.744Z,88.00
2019-06-04T03:20:55.738Z,96.00
2019-06-04T03:21:55.732Z,100.00
2019-06-04T03:22:55.724Z,112.00
2019-06-04T03:23:55.730Z,120.00
2019-06-04T03:24:55.750Z,132.00
2019-06-04T03:25:55.690Z,144.00
2019-06-04T03:26:55.678Z,160.00
2019-06-04T03:27:55.658Z,180.00
2019-06-04T03:28:55.650Z,200.00
2019-06-04T03:29:55.649Z,216.00
2019-06-04T03:30:55.685Z,236.00
2019-06-04T03:31:55.625Z,256.00
2019-06-04T03:32:55.627Z,276.00
2019-06-04T03:33:58.640Z,300.00
2019-06-04T03:34:55.579Z,320.00
2019-06-04T03:35:55.564Z,344.00
2019-06-04T03:36:55.611Z,368.00
2019-06-04T03:37:55.581Z,392.00
2019-06-04T03:38:55.544Z,424.00
2019-06-04T03:39:55.527Z,452.00
2019-06-04T03:40:55.517Z,492.00
2019-06-04T03:41:55.498Z,528.00
2019-06-04T03:42:55.531Z,572.00
2019-06-04T03:43:55.473Z,616.00
2019-06-04T03:44:55.481Z,664.00
2019-06-04T03:45:55.451Z,712.00
2019-06-04T03:46:55.446Z,764.00
2019-06-04T03:47:55.433Z,820.00
2019-06-04T03:48:55.478Z,872.00
2019-06-04T03:49:55.421Z,924.00
2019-06-04T03:50:55.412Z,976.00
2019-06-04T03:51:55.393Z,1036.00
2019-06-04T03:52:55.369Z,1092.00
2019-06-04T03:53:55.375Z,1148.00
2019-06-04T03:54:55.395Z,1204.00
2019-06-04T03:55:55.337Z,1256.00
2019-06-04T03:56:55.328Z,1300.00
2019-06-04T03:57:55.313Z,1344.00
2019-06-04T03:58:55.463Z,1380.00
2019-06-04T03:59:55.328Z,1424.00
2019-06-04T04:00:55.332Z,1464.00
2019-06-04T04:01:55.363Z,1512.00
2019-06-04T04:02:55.364Z,1564.00
2019-06-04T04:04:07.137Z,1612.00
2019-06-04T04:04:56.234Z,1660.00
2019-06-04T04:05:55.214Z,1708.00
2019-06-04T04:06:55.252Z,1760.00
2019-06-04T04:07:55.196Z,1820.00
2019-06-04T04:08:55.261Z,1876.00
2019-06-04T04:09:55.168Z,1940.00
2019-06-04T04:10:55.164Z,1996.00
2019-06-04T04:11:55.169Z,2044.00
2019-06-04T04:12:55.437Z,2100.00
2019-06-04T04:13:55.163Z,2184.00
2019-06-04T04:14:55.116Z,2280.00
2019-06-04T04:15:55.122Z,2372.00
2019-06-04T04:16:55.091Z,2452.00
2019-06-04T04:17:55.091Z,2516.00
2019-06-04T04:18:55.117Z,2540.00
2019-06-04T04:19:55.054Z,2552.00
2019-06-04T04:20:55.147Z,2572.00
2019-06-04T04:21:55.036Z,2672.00
2019-06-04T04:22:55.040Z,2780.00
2019-06-04T04:23:55.024Z,2856.00
2019-06-04T04:24:55.064Z,2936.00
2019-06-04T04:25:54.992Z,3044.00
2019-06-04T04:26:54.978Z,3148.00
2019-06-04T04:27:55.010Z,3236.00
2019-06-04T04:28:54.963Z,3316.00
2019-06-04T04:29:54.967Z,3400.00
2019-06-04T04:30:54.979Z,3488.00
2019-06-04T04:31:54.919Z,3580.00
2019-06-04T04:32:54.935Z,3672.00
2019-06-04T04:33:54.898Z,3760.00
2019-06-04T04:34:54.884Z,3832.00
2019-06-04T04:35:54.906Z,3900.00
2019-06-04T04:36:54.918Z,3960.00
2019-06-04T04:37:54.869Z,4048.00
2019-06-04T04:38:54.845Z,4164.00
2019-06-04T04:39:54.840Z,4284.00
2019-06-04T04:40:54.835Z,4376.00
2019-06-04T04:41:54.834Z,4432.00
2019-06-04T04:42:54.852Z,4524.00
2019-06-04T04:43:54.794Z,4640.00
2019-06-04T04:44:54.819Z,4724.00
2019-06-04T04:45:54.771Z,4816.00
2019-06-04T04:46:54.766Z,4924.00
2019-06-04T04:47:54.750Z,5020.00
2019-06-04T04:48:54.788Z,5128.00
2019-06-04T04:49:54.717Z,5240.00
2019-06-04T04:50:54.704Z,5300.00
2019-06-04T04:51:54.697Z,5328.00
2019-06-04T04:52:54.687Z,5384.00
2019-06-04T04:53:54.671Z,5444.00
2019-06-04T04:54:54.744Z,5500.00
2019-06-04T04:55:54.649Z,5544.00
2019-06-04T04:56:54.644Z,5612.00
2019-06-04T04:57:54.658Z,5696.00
2019-06-04T04:58:54.636Z,5784.00
2019-06-04T04:59:54.608Z,5864.00
2019-06-04T05:00:54.642Z,5944.00
2019-06-04T05:01:54.591Z,6036.00
2019-06-04T05:02:54.573Z,6176.00
2019-06-04T05:03:54.562Z,6336.00
2019-06-04T05:04:54.557Z,6496.00
2019-06-04T05:05:54.556Z,6676.00
2019-06-04T05:06:54.581Z,6824.00
2019-06-04T05:07:54.548Z,6944.00
2019-06-04T05:08:54.509Z,7096.00
2019-06-04T05:09:54.548Z,7236.00
2019-06-04T05:10:54.483Z,7300.00
2019-06-04T05:11:54.504Z,7376.00
2019-06-04T05:12:54.495Z,7444.00
2019-06-04T05:13:54.463Z,7536.00
2019-06-04T05:14:54.461Z,7588.00
2019-06-04T05:15:54.433Z,7620.00
2019-06-04T05:16:54.426Z,7632.00
2019-06-04T05:17:54.405Z,7628.00
2019-06-04T05:18:54.433Z,7576.00
2019-06-04T05:19:54.381Z,7556.00
2019-06-04T05:20:54.412Z,7572.00
2019-06-04T05:21:54.360Z,7564.00
2019-06-04T05:22:54.356Z,7504.00
2019-06-04T05:23:54.346Z,7480.00
2019-06-04T05:24:54.369Z,7484.00
2019-06-04T05:25:54.322Z,7460.00
2019-06-04T05:26:54.352Z,7404.00
2019-06-04T05:27:54.302Z,7392.00
2019-06-04T05:28:54.300Z,7432.00
2019-06-04T05:29:54.281Z,7492.00
2019-06-04T05:30:54.293Z,7544.00
2019-06-04T05:31:54.256Z,7592.00
2019-06-04T05:32:54.264Z,7668.00
2019-06-04T05:33:54.232Z,7748.00
2019-06-04T05:35:04.452Z,7824.00
2019-06-04T05:35:55.245Z,7904.00
2019-06-04T05:36:54.197Z,7988.00
2019-06-04T05:37:54.187Z,8048.00
2019-06-04T05:38:54.176Z,8184.00
2019-06-04T05:39:54.210Z,8260.00
2019-06-04T05:40:54.149Z,8404.00
2019-06-04T05:41:54.193Z,8500.00
2019-06-04T05:42:54.155Z,8580.00
2019-06-04T05:43:56.927Z,8660.00
2019-06-04T05:44:54.113Z,8660.00
2019-06-04T05:45:54.190Z,8612.00
2019-06-04T05:46:54.096Z,8644.00
2019-06-04T05:47:54.111Z,8684.00
2019-06-04T05:48:54.060Z,8716.00
2019-06-04T05:49:54.054Z,8592.00
2019-06-04T05:50:54.040Z,8876.00
2019-06-04T05:51:54.072Z,8812.00
2019-06-04T05:52:54.018Z,8656.00
2019-06-04T05:53:54.058Z,8776.00
2019-06-04T05:54:54.027Z,8948.00
2019-06-04T05:55:54.008Z,9028.00
2019-06-04T05:56:53.975Z,9100.00
2019-06-04T05:57:53.966Z,9112.00
2019-06-04T05:58:53.981Z,9132.00
2019-06-04T05:59:53.982Z,9156.00
2019-06-04T06:00:53.928Z,9200.00
2019-06-04T06:01:53.918Z,9280.00
2019-06-04T06:02:53.904Z,9392.00
2019-06-04T06:03:53.905Z,9480.00
2019-06-04T06:04:53.899Z,9464.00
2019-06-04T06:05:53.904Z,9364.00
2019-06-04T06:06:53.861Z,9292.00
2019-06-04T06:07:53.929Z,9300.00
2019-06-04T06:08:53.845Z,9348.00
2019-06-04T06:09:53.844Z,9452.00
2019-06-04T06:10:53.930Z,9500.00
2019-06-04T06:11:54.050Z,9560.00
2019-06-04T06:12:53.795Z,9872.00
2019-06-04T06:13:53.784Z,10236.00
2019-06-04T06:14:53.786Z,10496.00
2019-06-04T06:15:53.766Z,10744.00
2019-06-04T06:16:53.783Z,10792.00
2019-06-04T06:17:53.776Z,11208.00
2019-06-04T06:18:53.745Z,11628.00
2019-06-04T06:19:53.720Z,11392.00
2019-06-04T06:20:53.714Z,11324.00
2019-06-04T06:21:53.696Z,10920.00
2019-06-04T06:23:09.939Z,10564.00
2019-06-04T06:23:54.699Z,10256.00
2019-06-04T06:24:53.664Z,10228.00
2019-06-04T06:25:53.650Z,10352.00
2019-06-04T06:26:53.641Z,10372.00
2019-06-04T06:27:53.655Z,10616.00
2019-06-04T06:28:53.634Z,10656.00
2019-06-04T06:29:53.642Z,10608.00
2019-06-04T06:30:53.595Z,11092.00
2019-06-04T06:31:53.589Z,11560.00
2019-06-04T06:32:53.594Z,12520.00
2019-06-04T06:33:53.565Z,12764.00
2019-06-04T06:34:53.578Z,12080.00
2019-06-04T06:35:53.586Z,12880.00
2019-06-04T06:36:53.525Z,14068.00
2019-06-04T06:37:53.539Z,15188.00
2019-06-04T06:38:55.820Z,14764.00
2019-06-04T06:39:53.493Z,15636.00
2019-06-04T06:40:53.503Z,15420.00
2019-06-04T06:41:53.516Z,15040.00
2019-06-04T06:42:53.460Z,15044.00
2019-06-04T06:43:53.448Z,14544.00
2019-06-04T06:44:53.435Z,12772.00
2019-06-04T06:45:53.425Z,11584.00
2019-06-04T06:46:53.435Z,10836.00
2019-06-04T06:47:53.449Z,10816.00
2019-06-04T06:48:53.398Z,12552.00
2019-06-04T06:49:53.457Z,13872.00
2019-06-04T06:50:53.369Z,12548.00
2019-06-04T06:51:53.369Z,12004.00
2019-06-04T06:52:53.382Z,11188.00
2019-06-04T06:53:53.386Z,10844.00
2019-06-04T06:54:53.322Z,10648.00
2019-06-04T06:55:53.313Z,12208.00
2019-06-04T06:56:53.302Z,14340.00
2019-06-04T06:57:53.291Z,14192.00
2019-06-04T06:58:53.296Z,13048.00
2019-06-04T06:59:53.331Z,12704.00
2019-06-04T07:00:53.261Z,12248.00
2019-06-04T07:01:53.248Z,11836.00
2019-06-04T07:02:53.236Z,11624.00
2019-06-04T07:03:53.236Z,12780.00
2019-06-04T07:04:53.253Z,13576.00
2019-06-04T07:05:59.979Z,12652.00
2019-06-04T07:06:54.192Z,12908.00
2019-06-04T07:07:53.266Z,13772.00
2019-06-04T07:08:53.168Z,14772.00
2019-06-04T07:09:53.160Z,17216.00
2019-06-04T07:10:53.163Z,17472.00
2019-06-04T07:11:53.186Z,16296.00
2019-06-04T07:12:53.128Z,16024.00
2019-06-04T07:13:53.114Z,14484.00
2019-06-04T07:14:53.103Z,13912.00
2019-06-04T07:15:53.097Z,14788.00
2019-06-04T07:16:53.097Z,16512.00
2019-06-04T07:17:53.149Z,17664.00
2019-06-04T07:18:53.061Z,18624.00
2019-06-04T07:19:53.050Z,17984.00
2019-06-04T07:20:53.046Z,16896.00
2019-06-04T07:21:53.026Z,16116.00
2019-06-04T07:22:53.033Z,16704.00
2019-06-04T07:23:53.040Z,17024.00
2019-06-04T07:24:53.019Z,16672.00
2019-06-04T07:25:53.425Z,15788.00
2019-06-04T07:26:52.971Z,16576.00
2019-06-04T07:27:53.033Z,17952.00
2019-06-04T07:28:52.953Z,18528.00
2019-06-04T07:29:52.974Z,18880.00
2019-06-04T07:30:52.927Z,18080.00
2019-06-04T07:31:52.919Z,16864.00
2019-06-04T07:32:52.935Z,16672.00
2019-06-04T07:33:52.893Z,17184.00
2019-06-04T07:34:52.900Z,18240.00
2019-06-04T07:35:52.900Z,17504.00
2019-06-04T07:36:52.865Z,17248.00
2019-06-04T07:37:52.876Z,17408.00
2019-06-04T07:38:52.843Z,18400.00
2019-06-04T07:40:05.066Z,18752.00
2019-06-04T07:40:53.879Z,18464.00
2019-06-04T07:41:52.819Z,18272.00
2019-06-04T07:42:52.801Z,18176.00
2019-06-04T07:43:52.782Z,18368.00
2019-06-04T07:44:52.769Z,18496.00
2019-06-04T07:45:52.759Z,18400.00
2019-06-04T07:46:52.834Z,19104.00
2019-06-04T07:47:52.792Z,19392.00
2019-06-04T07:48:52.731Z,20192.00
2019-06-04T07:49:52.716Z,19744.00
2019-06-04T07:50:52.704Z,20544.00
2019-06-04T07:51:52.692Z,20192.00
2019-06-04T07:52:52.761Z,18400.00
2019-06-04T07:53:52.675Z,19264.00
2019-06-04T07:54:52.664Z,18144.00
2019-06-04T07:55:52.658Z,17120.00
2019-06-04T07:56:52.637Z,19904.00
2019-06-04T07:57:57.779Z,21088.00
2019-06-04T07:58:53.665Z,18944.00
2019-06-04T07:59:52.605Z,18208.00
2019-06-04T08:00:52.592Z,17984.00
2019-06-04T08:02:07.043Z,17728.00
2019-06-04T08:02:53.567Z,20608.00
2019-06-04T08:03:52.558Z,20064.00
2019-06-04T08:04:52.605Z,21600.00
2019-06-04T08:05:52.542Z,18944.00
2019-06-04T08:06:58.077Z,15368.00
2019-06-04T08:07:53.510Z,15176.00
2019-06-04T08:08:52.501Z,14892.00
2019-06-04T08:09:52.492Z,14180.00
2019-06-04T08:10:52.537Z,14820.00
2019-06-04T08:11:52.464Z,16168.00
2019-06-04T08:12:52.453Z,16544.00
2019-06-04T08:13:52.544Z,16220.00
2019-06-04T08:14:52.442Z,16704.00
2019-06-04T08:15:52.424Z,19744.00
2019-06-04T08:16:52.475Z,20480.00
2019-06-04T08:17:52.514Z,18432.00
2019-06-04T08:18:52.385Z,15916.00
2019-06-04T08:19:52.374Z,14996.00
2019-06-04T08:20:52.364Z,13808.00
2019-06-04T08:21:57.921Z,14792.00
2019-06-04T08:22:53.401Z,14992.00
2019-06-04T08:23:52.351Z,15220.00
2019-06-04T08:24:52.319Z,16244.00
2019-06-04T08:25:52.320Z,16196.00
2019-06-04T08:26:52.298Z,15280.00
2019-06-04T08:27:52.319Z,14524.00
2019-06-04T08:28:52.314Z,14676.00
2019-06-04T08:29:52.262Z,16592.00
2019-06-04T08:30:52.254Z,15632.00
2019-06-04T08:31:52.240Z,15756.00
2019-06-04T08:32:52.229Z,15516.00
2019-06-04T08:33:52.223Z,17728.00
2019-06-04T08:34:52.256Z,17952.00
2019-06-04T08:35:52.201Z,19840.00
2019-06-04T08:37:06.969Z,21600.00
2019-06-04T08:37:53.282Z,22560.00
2019-06-04T08:38:57.348Z,23232.00
2019-06-04T08:39:53.205Z,24736.00
2019-06-04T08:40:52.154Z,24480.00
2019-06-04T08:41:52.129Z,24064.00
2019-06-04T08:42:54.270Z,24960.00
2019-06-04T08:43:52.109Z,24800.00
2019-06-04T08:44:59.528Z,24480.00
2019-06-04T08:45:53.116Z,24800.00
2019-06-04T08:46:52.115Z,24224.00
2019-06-04T08:47:52.163Z,23264.00
2019-06-04T08:48:52.054Z,21024.00
2019-06-04T08:49:52.042Z,19872.00
2019-06-04T08:50:52.033Z,19968.00
2019-06-04T08:51:52.065Z,20288.00
2019-06-04T08:52:52.019Z,20320.00
2019-06-04T08:53:52.008Z,20512.00
2019-06-04T08:54:51.990Z,20928.00
2019-06-04T08:55:52.010Z,21504.00
2019-06-04T08:56:51.968Z,22048.00
2019-06-04T08:57:52.044Z,22528.00
2019-06-04T08:58:51.947Z,22336.00
2019-06-04T08:59:51.947Z,21984.00
2019-06-04T09:00:51.921Z,21696.00
2019-06-04T09:01:51.911Z,21408.00
2019-06-04T09:02:51.900Z,20992.00
2019-06-04T09:03:51.955Z,20800.00
2019-06-04T09:04:51.890Z,21024.00
2019-06-04T09:05:51.881Z,21280.00
2019-06-04T09:06:51.872Z,21152.00
2019-06-04T09:07:51.849Z,20288.00
2019-06-04T09:08:51.852Z,20480.00
2019-06-04T09:09:53.642Z,19808.00
2019-06-04T09:10:51.815Z,19040.00
2019-06-04T09:11:51.995Z,18784.00
2019-06-04T09:12:51.793Z,18688.00
2019-06-04T09:13:51.786Z,18656.00
2019-06-04T09:14:51.769Z,18464.00
2019-06-04T09:15:55.762Z,18048.00
2019-06-04T09:16:51.910Z,17232.00
2019-06-04T09:17:53.766Z,16828.00
2019-06-04T09:18:51.760Z,16676.00
2019-06-04T09:19:51.761Z,16980.00
2019-06-04T09:20:51.708Z,17208.00
2019-06-04T09:21:52.156Z,17100.00
2019-06-04T09:22:51.685Z,16992.00
2019-06-04T09:23:51.827Z,16976.00
2019-06-04T09:24:53.763Z,16940.00
2019-06-04T09:25:51.652Z,17124.00
2019-06-04T09:27:02.704Z,17616.00
2019-06-04T09:27:52.833Z,16720.00
2019-06-04T09:28:51.620Z,16076.00
2019-06-04T09:29:51.637Z,16120.00
2019-06-04T09:31:02.426Z,16064.00
2019-06-04T09:31:52.596Z,16936.00
2019-06-04T09:32:51.577Z,16904.00
2019-06-04T09:33:51.634Z,15928.00
2019-06-04T09:34:51.555Z,15588.00
2019-06-04T09:35:51.543Z,16656.00
2019-06-04T09:36:51.531Z,16376.00
2019-06-04T09:38:02.497Z,16272.00
2019-06-04T09:38:52.543Z,16936.00
2019-06-04T09:39:53.543Z,16912.00
2019-06-04T09:40:52.166Z,16644.00
2019-06-04T09:41:51.479Z,16372.00
2019-06-04T09:42:51.529Z,16044.00
2019-06-04T09:43:51.469Z,15832.00
2019-06-04T09:44:51.491Z,15716.00
2019-06-04T09:45:51.454Z,15752.00
2019-06-04T09:46:52.852Z,15868.00
2019-06-04T09:47:51.995Z,15928.00
2019-06-04T09:48:52.115Z,15840.00
2019-06-04T09:49:54.182Z,15744.00
2019-06-04T09:50:58.695Z,16060.00
2019-06-04T09:51:52.381Z,16072.00
2019-06-04T09:52:53.478Z,16132.00
2019-06-04T09:53:51.345Z,15884.00
2019-06-04T09:54:51.347Z,16596.00
2019-06-04T09:55:51.660Z,16744.00
2019-06-04T09:56:52.172Z,17020.00
2019-06-04T09:58:26.128Z,16888.00
2019-06-04T09:58:52.294Z,16312.00
2019-06-04T09:59:51.455Z,15876.00
2019-06-04T10:00:52.717Z,15696.00
2019-06-04T10:01:53.590Z,15648.00
2019-06-04T10:02:57.080Z,15592.00
2019-06-04T10:03:52.236Z,15596.00
2019-06-04T10:04:54.588Z,15708.00
2019-06-04T10:05:51.973Z,15836.00
2019-06-04T10:06:51.944Z,15916.00
2019-06-04T10:08:10.833Z,16052.00
2019-06-04T10:08:52.726Z,16164.00
2019-06-04T10:09:52.478Z,16328.00
2019-06-04T10:10:52.848Z,16336.00
2019-06-04T10:11:52.484Z,16300.00
2019-06-04T10:12:51.142Z,16344.00
2019-06-04T10:13:51.140Z,16424.00
2019-06-04T10:14:51.177Z,16660.00
2019-06-04T10:15:51.383Z,16804.00
2019-06-04T10:16:51.322Z,16884.00
2019-06-04T10:17:51.354Z,16940.00
2019-06-04T10:18:51.511Z,17020.00
2019-06-04T10:19:51.864Z,16980.00
2019-06-04T10:20:51.839Z,17004.00
2019-06-04T10:21:51.999Z,17032.00
2019-06-04T10:22:52.189Z,17100.00
2019-06-04T10:23:51.022Z,17256.00
2019-06-04T10:24:54.569Z,17508.00
2019-06-04T10:25:52.444Z,17816.00
2019-06-04T10:26:54.417Z,18232.00
2019-06-04T10:27:52.352Z,19072.00
2019-06-04T10:28:59.762Z,19968.00
2019-06-04T10:29:52.282Z,20928.00
2019-06-04T10:30:53.227Z,20960.00
2019-06-04T10:31:50.967Z,20640.00
2019-06-04T10:32:50.926Z,20480.00
2019-06-04T10:33:50.923Z,20832.00
2019-06-04T10:34:53.369Z,22048.00
2019-06-04T10:35:53.474Z,24032.00
2019-06-04T10:37:14.592Z,26816.00
2019-06-04T10:37:52.893Z,32128.00
2019-06-04T10:38:50.936Z,35328.00
2019-06-04T10:39:51.246Z,35520.00
2019-06-04T10:40:52.507Z,37312.00
2019-06-04T10:41:51.392Z,38720.00
2019-06-04T10:42:51.686Z,40352.00
2019-06-04T10:43:51.500Z,40768.00
2019-06-04T10:44:52.420Z,38272.00
2019-06-04T10:45:51.575Z,34784.00
2019-06-04T10:46:51.848Z,33760.00
2019-06-04T10:47:52.899Z,37024.00
2019-06-04T10:48:52.099Z,35648.00
2019-06-04T10:49:50.823Z,36224.00
2019-06-04T10:50:51.350Z,36608.00
2019-06-04T10:51:51.771Z,37344.00
2019-06-04T10:52:52.980Z,36192.00
2019-06-04T10:53:51.600Z,34752.00
2019-06-04T10:54:51.527Z,33472.00
2019-06-04T10:55:52.018Z,33152.00
2019-06-04T10:56:51.763Z,32032.00
2019-06-04T10:57:51.585Z,31584.00
2019-06-04T10:58:52.004Z,31264.00
2019-06-04T10:59:52.826Z,31424.00
2019-06-04T11:00:53.011Z,31616.00
2019-06-04T11:01:51.965Z,32928.00
2019-06-04T11:02:51.841Z,33696.00
2019-06-04T11:03:51.599Z,34144.00
2019-06-04T11:04:50.578Z,34336.00
2019-06-04T11:05:50.744Z,34624.00
2019-06-04T11:06:50.556Z,36128.00
2019-06-04T11:07:50.590Z,36160.00
2019-06-04T11:09:01.793Z,36640.00
2019-06-04T11:09:52.225Z,36864.00
2019-06-04T11:10:51.964Z,36800.00
2019-06-04T11:11:50.693Z,37568.00
2019-06-04T11:12:51.760Z,37504.00
2019-06-04T11:13:50.789Z,36160.00
2019-06-04T11:14:51.741Z,39200.00
2019-06-04T11:15:51.362Z,39712.00
2019-06-04T11:16:50.450Z,40224.00
2019-06-04T11:17:51.465Z,41696.00
2019-06-04T11:18:50.428Z,42656.00
2019-06-04T11:19:51.257Z,42592.00
2019-06-04T11:20:50.466Z,42464.00
2019-06-04T11:21:50.530Z,42432.00
2019-06-04T11:22:50.510Z,42784.00
2019-06-04T11:23:50.832Z,42112.00
2019-06-04T11:24:50.598Z,42528.00
2019-06-04T11:25:51.552Z,41568.00
2019-06-04T11:26:50.812Z,41600.00
2019-06-04T11:27:50.975Z,41056.00
2019-06-04T11:28:51.184Z,41792.00
2019-06-04T11:29:51.172Z,42176.00
2019-06-04T11:30:51.821Z,41472.00
2019-06-04T11:31:51.378Z,41664.00
2019-06-04T11:32:51.513Z,42048.00
2019-06-04T11:33:51.823Z,42400.00
2019-06-04T11:34:51.586Z,41216.00
2019-06-04T11:35:51.013Z,42720.00
2019-06-04T11:36:50.247Z,42144.00
2019-06-04T11:37:50.501Z,41472.00
2019-06-04T11:39:11.476Z,42656.00
2019-06-04T11:39:52.364Z,44032.00
2019-06-04T11:40:51.132Z,44960.00
2019-06-04T11:41:50.418Z,44672.00
2019-06-04T11:42:54.038Z,45504.00
2019-06-04T11:43:51.204Z,45088.00
2019-06-04T11:44:57.356Z,44000.00
2019-06-04T11:45:51.159Z,45536.00
2019-06-04T11:46:50.991Z,46304.00
2019-06-04T11:47:51.012Z,46656.00
2019-06-04T11:48:51.317Z,49184.00
2019-06-04T11:49:51.895Z,50240.00
2019-06-04T11:50:51.309Z,50944.00
2019-06-04T11:51:51.092Z,48928.00
2019-06-04T11:52:51.392Z,48544.00
2019-06-04T11:53:51.383Z,48416.00
2019-06-04T11:54:52.106Z,49568.00
2019-06-04T11:55:52.185Z,49024.00
2019-06-04T11:56:51.247Z,47712.00
2019-06-04T11:57:52.246Z,47232.00
2019-06-04T11:58:50.016Z,48224.00
2019-06-04T11:59:50.017Z,47872.00
2019-06-04T12:00:50.008Z,49472.00
2019-06-04T12:01:50.040Z,50944.00
2019-06-04T12:02:50.044Z,51040.00
2019-06-04T12:03:49.969Z,49280.00
2019-06-04T12:04:49.967Z,54464.00
2019-06-04T12:05:49.991Z,57152.00
2019-06-04T12:06:49.935Z,57120.00
2019-06-04T12:07:49.983Z,55360.00
2019-06-04T12:08:49.914Z,59296.00
2019-06-04T12:09:49.925Z,59808.00
2019-06-04T12:10:49.961Z,55776.00
2019-06-04T12:12:14.732Z,58784.00
2019-06-04T12:12:50.905Z,57536.00
2019-06-04T12:13:49.860Z,55296.00